sensor_id;sensor_type;location;lat;lon;timestamp;temperature;humidity
26051;DHT22;13825;53.496;10.020;2024-02-21T00:00:45;8.70;29.50
26051;DHT22;13825;53.496;10.020;2024-02-21T00:03:30;8.60;44.30
26051;DHT22;13825;53.496;10.020;2024-02-21T00:09:12;8.60;75.80
26051;DHT22;13825;53.496;10.020;2024-02-21T00:11:38;8.60;95.30
26051;DHT22;13825;53.496;10.020;2024-02-21T00:14:14;8.70;91.90
26051;DHT22;13825;53.496;10.020;2024-02-21T00:19:50;8.60;99.90
26051;DHT22;13825;53.496;10.020;2024-02-21T00:22:20;8.60;99.90
26051;DHT22;13825;53.496;10.020;2024-02-21T00:27:55;8.60;99.90
26051;DHT22;13825;53.496;10.020;2024-02-21T00:30:23;8.60;99.90
26051;DHT22;13825;53.496;10.020;2024-02-21T00:32:50;8.80;99.90
26051;DHT22;13825;53.496;10.020;2024-02-21T00:38:45;8.40;99.90
26051;DHT22;13825;53.496;10.020;2024-02-21T00:41:15;8.50;99.90
26051;DHT22;13825;53.496;10.020;2024-02-21T00:43:44;8.50;99.90
26051;DHT22;13825;53.496;10.020;2024-02-21T00:48:49;8.60;99.90
26051;DHT22;13825;53.496;10.020;2024-02-21T00:51:25;8.50;99.90
26051;DHT22;13825;53.496;10.020;2024-02-21T00:53:54;8.60;99.90
26051;DHT22;13825;53.496;10.020;2024-02-21T00:56:38;8.60;99.90
26051;DHT22;13825;53.496;10.020;2024-02-21T00:59:14;8.60;99.90
26051;DHT22;13825;53.496;10.020;2024-02-21T01:02:11;8.60;99.90
26051;DHT22;13825;53.496;10.020;2024-02-21T01:04:49;8.60;99.90
26051;DHT22;13825;53.496;10.020;2024-02-21T01:07:37;8.70;99.90
26051;DHT22;13825;53.496;10.020;2024-02-21T01:16:29;8.60;99.90
26051;DHT22;13825;53.496;10.020;2024-02-21T01:19:06;8.60;99.90
26051;DHT22;13825;53.496;10.020;2024-02-21T01:21:43;8.70;99.90
26051;DHT22;13825;53.496;10.020;2024-02-21T01:30:28;8.60;99.90
26051;DHT22;13825;53.496;10.020;2024-02-21T01:32:59;8.50;99.90
26051;DHT22;13825;53.496;10.020;2024-02-21T01:41:29;8.60;99.90
26051;DHT22;13825;53.496;10.020;2024-02-21T01:44:05;8.60;99.90
26051;DHT22;13825;53.496;10.020;2024-02-21T01:46:51;8.70;99.90
26051;DHT22;13825;53.496;10.020;2024-02-21T01:49:57;8.60;99.90
26051;DHT22;13825;53.496;10.020;2024-02-21T01:52:24;8.60;99.90
26051;DHT22;13825;53.496;10.020;2024-02-21T01:54:50;8.60;99.90
26051;DHT22;13825;53.496;10.020;2024-02-21T01:57:21;8.60;99.90
26051;DHT22;13825;53.496;10.020;2024-02-21T01:59:49;8.50;99.90
26051;DHT22;13825;53.496;10.020;2024-02-21T02:02:30;8.50;99.90
26051;DHT22;13825;53.496;10.020;2024-02-21T02:11:24;8.40;1.00
26051;DHT22;13825;53.496;10.020;2024-02-21T02:14:01;8.50;1.00
26051;DHT22;13825;53.496;10.020;2024-02-21T02:16:29;8.40;1.00
26051;DHT22;13825;53.496;10.020;2024-02-21T02:19:27;8.40;1.00
26051;DHT22;13825;53.496;10.020;2024-02-21T02:22:15;8.50;1.00
26051;DHT22;13825;53.496;10.020;2024-02-21T02:25:21;8.50;1.00
26051;DHT22;13825;53.496;10.020;2024-02-21T02:27:47;8.50;1.00
26051;DHT22;13825;53.496;10.020;2024-02-21T02:36:12;8.50;1.00
26051;DHT22;13825;53.496;10.020;2024-02-21T02:38:46;8.40;1.00
26051;DHT22;13825;53.496;10.020;2024-02-21T02:41:14;8.50;1.00
26051;DHT22;13825;53.496;10.020;2024-02-21T02:43:41;8.50;1.00
26051;DHT22;13825;53.496;10.020;2024-02-21T02:46:08;8.40;1.00
26051;DHT22;13825;53.496;10.020;2024-02-21T02:48:40;8.50;1.00
26051;DHT22;13825;53.496;10.020;2024-02-21T02:51:06;8.50;1.00
26051;DHT22;13825;53.496;10.020;2024-02-21T02:53:39;8.50;99.90
26051;DHT22;13825;53.496;10.020;2024-02-21T02:59:31;8.50;99.90
26051;DHT22;13825;53.496;10.020;2024-02-21T03:02:17;8.50;99.90
26051;DHT22;13825;53.496;10.020;2024-02-21T03:04:50;8.70;99.90
26051;DHT22;13825;53.496;10.020;2024-02-21T03:07:19;8.50;99.90
26051;DHT22;13825;53.496;10.020;2024-02-21T03:09:46;8.50;99.90
26051;DHT22;13825;53.496;10.020;2024-02-21T03:12:31;8.60;99.90
26051;DHT22;13825;53.496;10.020;2024-02-21T03:18:20;8.60;99.90
26051;DHT22;13825;53.496;10.020;2024-02-21T03:20:47;8.70;99.90
26051;DHT22;13825;53.496;10.020;2024-02-21T03:23:15;8.70;99.90
26051;DHT22;13825;53.496;10.020;2024-02-21T03:25:43;8.70;99.90
26051;DHT22;13825;53.496;10.020;2024-02-21T03:28:10;8.70;99.90
26051;DHT22;13825;53.496;10.020;2024-02-21T03:30:46;8.60;99.90
26051;DHT22;13825;53.496;10.020;2024-02-21T03:33:13;8.70;99.90
26051;DHT22;13825;53.496;10.020;2024-02-21T03:35:41;8.80;99.90
26051;DHT22;13825;53.496;10.020;2024-02-21T03:38:11;8.70;99.90
26051;DHT22;13825;53.496;10.020;2024-02-21T03:43:48;8.60;99.90
26051;DHT22;13825;53.496;10.020;2024-02-21T03:46:24;8.80;99.90
26051;DHT22;13825;53.496;10.020;2024-02-21T03:52:04;8.90;99.90
26051;DHT22;13825;53.496;10.020;2024-02-21T03:54:43;8.80;99.90
26051;DHT22;13825;53.496;10.020;2024-02-21T04:00:05;8.80;99.90
26051;DHT22;13825;53.496;10.020;2024-02-21T04:02:39;8.80;99.90
26051;DHT22;13825;53.496;10.020;2024-02-21T04:05:15;8.70;99.90
26051;DHT22;13825;53.496;10.020;2024-02-21T04:10:52;8.70;99.90
26051;DHT22;13825;53.496;10.020;2024-02-21T04:13:25;8.60;99.90
26051;DHT22;13825;53.496;10.020;2024-02-21T04:16:16;8.60;99.90
26051;DHT22;13825;53.496;10.020;2024-02-21T04:18:55;8.60;99.90
26051;DHT22;13825;53.496;10.020;2024-02-21T04:21:30;8.50;99.90
26051;DHT22;13825;53.496;10.020;2024-02-21T04:24:11;8.50;99.90
26051;DHT22;13825;53.496;10.020;2024-02-21T04:26:48;8.50;99.90
26051;DHT22;13825;53.496;10.020;2024-02-21T04:32:04;8.50;99.90
26051;DHT22;13825;53.496;10.020;2024-02-21T04:34:37;8.50;99.90
26051;DHT22;13825;53.496;10.020;2024-02-21T04:37:11;8.50;99.90
26051;DHT22;13825;53.496;10.020;2024-02-21T04:39:40;8.50;99.90
26051;DHT22;13825;53.496;10.020;2024-02-21T04:42:14;8.50;99.90
26051;DHT22;13825;53.496;10.020;2024-02-21T04:45:00;8.50;1.00
26051;DHT22;13825;53.496;10.020;2024-02-21T04:47:32;8.50;1.00
26051;DHT22;13825;53.496;10.020;2024-02-21T04:50:04;8.50;1.00
26051;DHT22;13825;53.496;10.020;2024-02-21T04:52:49;8.50;1.00
26051;DHT22;13825;53.496;10.020;2024-02-21T05:01:07;8.40;1.00
26051;DHT22;13825;53.496;10.020;2024-02-21T05:03:44;8.50;1.00
26051;DHT22;13825;53.496;10.020;2024-02-21T05:09:14;8.20;1.00
26051;DHT22;13825;53.496;10.020;2024-02-21T05:11:46;8.40;1.00
26051;DHT22;13825;53.496;10.020;2024-02-21T05:23:36;8.50;99.90
26051;DHT22;13825;53.496;10.020;2024-02-21T05:28:40;8.30;99.90
26051;DHT22;13825;53.496;10.020;2024-02-21T05:34:11;8.40;99.90
26051;DHT22;13825;53.496;10.020;2024-02-21T05:39:16;8.40;99.90
26051;DHT22;13825;53.496;10.020;2024-02-21T05:41:49;8.40;90.20
26051;DHT22;13825;53.496;10.020;2024-02-21T05:47:25;8.50;99.90
26051;DHT22;13825;53.496;10.020;2024-02-21T05:50:14;8.40;99.90
26051;DHT22;13825;53.496;10.020;2024-02-21T05:52:57;8.30;99.90
26051;DHT22;13825;53.496;10.020;2024-02-21T05:55:28;8.40;99.90
26051;DHT22;13825;53.496;10.020;2024-02-21T06:01:18;8.40;99.90
26051;DHT22;13825;53.496;10.020;2024-02-21T06:04:11;8.30;99.90
26051;DHT22;13825;53.496;10.020;2024-02-21T06:09:42;8.40;99.90
26051;DHT22;13825;53.496;10.020;2024-02-21T06:21:32;8.40;13.30
26051;DHT22;13825;53.496;10.020;2024-02-21T06:27:02;8.40;99.90
26051;DHT22;13825;53.496;10.020;2024-02-21T06:52:45;8.40;99.90
26051;DHT22;13825;53.496;10.020;2024-02-21T06:55:27;8.40;99.90
26051;DHT22;13825;53.496;10.020;2024-02-21T06:58:05;8.40;99.90
26051;DHT22;13825;53.496;10.020;2024-02-21T07:00:42;8.40;99.90
26051;DHT22;13825;53.496;10.020;2024-02-21T07:03:21;8.40;99.90
26051;DHT22;13825;53.496;10.020;2024-02-21T07:05:59;8.40;99.90
26051;DHT22;13825;53.496;10.020;2024-02-21T07:08:32;8.40;99.90
26051;DHT22;13825;53.496;10.020;2024-02-21T07:11:07;8.40;99.90
26051;DHT22;13825;53.496;10.020;2024-02-21T07:13:37;8.50;99.90
26051;DHT22;13825;53.496;10.020;2024-02-21T07:16:10;8.50;99.90
26051;DHT22;13825;53.496;10.020;2024-02-21T07:18:48;8.50;99.90
26051;DHT22;13825;53.496;10.020;2024-02-21T07:21:37;8.50;99.90
26051;DHT22;13825;53.496;10.020;2024-02-21T07:24:20;8.60;99.90
26051;DHT22;13825;53.496;10.020;2024-02-21T07:27:07;8.60;99.90
26051;DHT22;13825;53.496;10.020;2024-02-21T07:29:42;8.60;99.90
26051;DHT22;13825;53.496;10.020;2024-02-21T07:34:50;8.60;99.90
26051;DHT22;13825;53.496;10.020;2024-02-21T07:37:30;8.60;99.90
26051;DHT22;13825;53.496;10.020;2024-02-21T07:39:58;8.60;99.90
26051;DHT22;13825;53.496;10.020;2024-02-21T07:42:25;8.50;99.90
26051;DHT22;13825;53.496;10.020;2024-02-21T07:44:52;8.50;99.90
26051;DHT22;13825;53.496;10.020;2024-02-21T07:47:18;8.50;95.90
26051;DHT22;13825;53.496;10.020;2024-02-21T07:49:47;8.50;99.90
26051;DHT22;13825;53.496;10.020;2024-02-21T07:52:15;8.60;99.90
26051;DHT22;13825;53.496;10.020;2024-02-21T07:54:44;8.60;99.90
26051;DHT22;13825;53.496;10.020;2024-02-21T07:57:12;8.60;91.80
26051;DHT22;13825;53.496;10.020;2024-02-21T07:59:41;8.50;99.90
26051;DHT22;13825;53.496;10.020;2024-02-21T08:02:07;8.40;99.90
26051;DHT22;13825;53.496;10.020;2024-02-21T08:04:34;8.50;99.90
26051;DHT22;13825;53.496;10.020;2024-02-21T08:07:01;8.50;99.90
26051;DHT22;13825;53.496;10.020;2024-02-21T08:09:29;8.50;99.90
26051;DHT22;13825;53.496;10.020;2024-02-21T08:11:57;8.60;99.90
26051;DHT22;13825;53.496;10.020;2024-02-21T08:14:24;8.50;99.90
26051;DHT22;13825;53.496;10.020;2024-02-21T08:16:51;8.20;99.90
26051;DHT22;13825;53.496;10.020;2024-02-21T08:19:20;8.50;99.90
26051;DHT22;13825;53.496;10.020;2024-02-21T08:21:47;8.50;99.90
26051;DHT22;13825;53.496;10.020;2024-02-21T08:24:14;8.50;99.90
26051;DHT22;13825;53.496;10.020;2024-02-21T08:26:41;8.50;99.90
26051;DHT22;13825;53.496;10.020;2024-02-21T08:29:09;8.50;1.00
26051;DHT22;13825;53.496;10.020;2024-02-21T08:31:36;8.60;1.00
26051;DHT22;13825;53.496;10.020;2024-02-21T08:34:03;8.50;1.00
26051;DHT22;13825;53.496;10.020;2024-02-21T08:36:30;8.50;79.60
26051;DHT22;13825;53.496;10.020;2024-02-21T08:38:57;8.50;98.70
26051;DHT22;13825;53.496;10.020;2024-02-21T08:41:27;8.30;1.00
26051;DHT22;13825;53.496;10.020;2024-02-21T08:43:54;8.20;1.00
26051;DHT22;13825;53.496;10.020;2024-02-21T08:46:36;8.10;1.00
26051;DHT22;13825;53.496;10.020;2024-02-21T08:49:05;8.10;57.50
26051;DHT22;13825;53.496;10.020;2024-02-21T08:51:32;8.00;1.00
26051;DHT22;13825;53.496;10.020;2024-02-21T08:54:01;7.90;1.00
26051;DHT22;13825;53.496;10.020;2024-02-21T08:56:29;7.90;1.00
26051;DHT22;13825;53.496;10.020;2024-02-21T08:58:56;7.90;49.00
26051;DHT22;13825;53.496;10.020;2024-02-21T09:01:23;7.90;99.90
26051;DHT22;13825;53.496;10.020;2024-02-21T09:03:52;7.90;99.90
26051;DHT22;13825;53.496;10.020;2024-02-21T09:06:19;7.90;99.90
26051;DHT22;13825;53.496;10.020;2024-02-21T09:08:46;8.00;99.90
26051;DHT22;13825;53.496;10.020;2024-02-21T09:11:13;8.00;99.90
26051;DHT22;13825;53.496;10.020;2024-02-21T09:13:40;8.00;99.90
26051;DHT22;13825;53.496;10.020;2024-02-21T09:16:06;8.20;99.90
26051;DHT22;13825;53.496;10.020;2024-02-21T09:18:34;8.20;99.90
26051;DHT22;13825;53.496;10.020;2024-02-21T09:21:03;8.20;99.90
26051;DHT22;13825;53.496;10.020;2024-02-21T09:23:30;8.20;99.90
26051;DHT22;13825;53.496;10.020;2024-02-21T09:26:01;8.20;99.90
26051;DHT22;13825;53.496;10.020;2024-02-21T09:28:29;8.10;99.90
26051;DHT22;13825;53.496;10.020;2024-02-21T09:30:58;8.40;99.90
26051;DHT22;13825;53.496;10.020;2024-02-21T09:33:27;8.30;99.90
26051;DHT22;13825;53.496;10.020;2024-02-21T09:35:55;8.50;99.90
26051;DHT22;13825;53.496;10.020;2024-02-21T09:38:23;8.40;99.90
26051;DHT22;13825;53.496;10.020;2024-02-21T09:40:52;8.40;6.60
26051;DHT22;13825;53.496;10.020;2024-02-21T09:43:22;8.50;20.60
26051;DHT22;13825;53.496;10.020;2024-02-21T09:45:49;8.60;12.20
26051;DHT22;13825;53.496;10.020;2024-02-21T09:48:25;8.60;1.00
26051;DHT22;13825;53.496;10.020;2024-02-21T09:50:56;8.70;1.00
26051;DHT22;13825;53.496;10.020;2024-02-21T09:53:25;8.70;1.00
26051;DHT22;13825;53.496;10.020;2024-02-21T09:55:53;8.70;1.00
26051;DHT22;13825;53.496;10.020;2024-02-21T09:58:19;8.70;1.00
26051;DHT22;13825;53.496;10.020;2024-02-21T10:00:47;8.70;1.00
26051;DHT22;13825;53.496;10.020;2024-02-21T10:03:13;8.60;1.00
26051;DHT22;13825;53.496;10.020;2024-02-21T10:05:45;8.60;1.00
26051;DHT22;13825;53.496;10.020;2024-02-21T10:08:13;8.60;1.00
26051;DHT22;13825;53.496;10.020;2024-02-21T10:10:43;8.60;1.00
26051;DHT22;13825;53.496;10.020;2024-02-21T10:13:25;8.80;1.00
26051;DHT22;13825;53.496;10.020;2024-02-21T10:16:07;8.80;1.00
26051;DHT22;13825;53.496;10.020;2024-02-21T10:18:34;8.70;1.00
26051;DHT22;13825;53.496;10.020;2024-02-21T10:21:04;8.70;1.00
26051;DHT22;13825;53.496;10.020;2024-02-21T10:23:41;8.70;1.00
26051;DHT22;13825;53.496;10.020;2024-02-21T10:26:10;8.80;1.00
26051;DHT22;13825;53.496;10.020;2024-02-21T10:28:39;8.80;1.00
26051;DHT22;13825;53.496;10.020;2024-02-21T10:31:07;8.80;99.90
26051;DHT22;13825;53.496;10.020;2024-02-21T10:33:34;8.80;99.90
26051;DHT22;13825;53.496;10.020;2024-02-21T10:36:14;8.90;99.90
26051;DHT22;13825;53.496;10.020;2024-02-21T10:38:53;8.90;99.90
26051;DHT22;13825;53.496;10.020;2024-02-21T10:41:22;8.80;99.90
26051;DHT22;13825;53.496;10.020;2024-02-21T10:43:49;8.80;99.90
26051;DHT22;13825;53.496;10.020;2024-02-21T10:46:18;8.90;99.90
26051;DHT22;13825;53.496;10.020;2024-02-21T10:48:52;8.90;99.90
26051;DHT22;13825;53.496;10.020;2024-02-21T10:51:29;8.90;99.90
26051;DHT22;13825;53.496;10.020;2024-02-21T10:54:10;8.80;99.90
26051;DHT22;13825;53.496;10.020;2024-02-21T10:57:01;8.80;59.70
26051;DHT22;13825;53.496;10.020;2024-02-21T11:02:20;8.70;27.60
26051;DHT22;13825;53.496;10.020;2024-02-21T11:05:09;8.80;22.00
26051;DHT22;13825;53.496;10.020;2024-02-21T11:07:37;8.90;75.50
26051;DHT22;13825;53.496;10.020;2024-02-21T11:10:19;8.90;20.90
26051;DHT22;13825;53.496;10.020;2024-02-21T11:19:08;8.80;1.00
26051;DHT22;13825;53.496;10.020;2024-02-21T11:21:46;8.90;1.00
26051;DHT22;13825;53.496;10.020;2024-02-21T11:40:28;8.80;1.00
26051;DHT22;13825;53.496;10.020;2024-02-21T11:48:36;8.90;1.00
26051;DHT22;13825;53.496;10.020;2024-02-21T12:08:28;9.00;99.90
26051;DHT22;13825;53.496;10.020;2024-02-21T12:11:19;9.00;99.90
26051;DHT22;13825;53.496;10.020;2024-02-21T12:14:02;9.10;99.90
26051;DHT22;13825;53.496;10.020;2024-02-21T12:16:35;9.00;99.90
26051;DHT22;13825;53.496;10.020;2024-02-21T12:19:08;9.00;99.90
26051;DHT22;13825;53.496;10.020;2024-02-21T12:21:49;8.80;99.90
26051;DHT22;13825;53.496;10.020;2024-02-21T12:24:25;8.80;99.90
26051;DHT22;13825;53.496;10.020;2024-02-21T12:27:09;8.80;1.00
26051;DHT22;13825;53.496;10.020;2024-02-21T12:29:43;8.80;1.00
26051;DHT22;13825;53.496;10.020;2024-02-21T12:32:15;8.80;1.00
26051;DHT22;13825;53.496;10.020;2024-02-21T12:34:53;8.80;1.00
26051;DHT22;13825;53.496;10.020;2024-02-21T12:37:26;8.80;1.00
26051;DHT22;13825;53.496;10.020;2024-02-21T12:42:42;8.90;99.90
26051;DHT22;13825;53.496;10.020;2024-02-21T12:45:20;9.00;99.90
26051;DHT22;13825;53.496;10.020;2024-02-21T12:48:09;9.00;99.90
26051;DHT22;13825;53.496;10.020;2024-02-21T12:50:58;9.00;99.90
26051;DHT22;13825;53.496;10.020;2024-02-21T12:53:33;9.10;99.90
26051;DHT22;13825;53.496;10.020;2024-02-21T12:56:04;9.10;99.90
26051;DHT22;13825;53.496;10.020;2024-02-21T12:58:51;9.10;99.90
26051;DHT22;13825;53.496;10.020;2024-02-21T13:01:24;9.10;99.90
26051;DHT22;13825;53.496;10.020;2024-02-21T13:04:14;9.20;99.90
26051;DHT22;13825;53.496;10.020;2024-02-21T13:06:43;9.30;99.90
26051;DHT22;13825;53.496;10.020;2024-02-21T13:09:18;9.40;99.90
26051;DHT22;13825;53.496;10.020;2024-02-21T13:11:53;9.50;99.90
26051;DHT22;13825;53.496;10.020;2024-02-21T13:14:38;9.50;99.90
26051;DHT22;13825;53.496;10.020;2024-02-21T13:17:08;9.80;99.90
26051;DHT22;13825;53.496;10.020;2024-02-21T13:19:40;9.70;99.90
26051;DHT22;13825;53.496;10.020;2024-02-21T13:22:07;9.80;99.90
26051;DHT22;13825;53.496;10.020;2024-02-21T13:24:43;9.80;99.90
26051;DHT22;13825;53.496;10.020;2024-02-21T13:27:13;9.70;99.90
26051;DHT22;13825;53.496;10.020;2024-02-21T13:30:04;9.60;99.90
26051;DHT22;13825;53.496;10.020;2024-02-21T13:32:43;9.60;99.90
26051;DHT22;13825;53.496;10.020;2024-02-21T13:35:14;9.60;99.90
26051;DHT22;13825;53.496;10.020;2024-02-21T13:37:51;9.60;99.90
26051;DHT22;13825;53.496;10.020;2024-02-21T13:40:28;9.60;99.90
26051;DHT22;13825;53.496;10.020;2024-02-21T13:43:07;9.70;99.90
26051;DHT22;13825;53.496;10.020;2024-02-21T13:48:36;9.80;99.90
26051;DHT22;13825;53.496;10.020;2024-02-21T13:51:23;9.70;99.90
26051;DHT22;13825;53.496;10.020;2024-02-21T13:53:59;9.80;99.90
26051;DHT22;13825;53.496;10.020;2024-02-21T13:56:32;9.80;85.60
26051;DHT22;13825;53.496;10.020;2024-02-21T13:59:18;9.90;93.30
26051;DHT22;13825;53.496;10.020;2024-02-21T14:01:59;9.90;74.20
26051;DHT22;13825;53.496;10.020;2024-02-21T14:04:33;9.80;33.60
26051;DHT22;13825;53.496;10.020;2024-02-21T14:07:13;9.90;13.60
26051;DHT22;13825;53.496;10.020;2024-02-21T14:12:39;10.10;2.80
26051;DHT22;13825;53.496;10.020;2024-02-21T14:15:09;10.20;1.00
26051;DHT22;13825;53.496;10.020;2024-02-21T14:17:45;10.20;1.00
26051;DHT22;13825;53.496;10.020;2024-02-21T14:20:41;10.30;1.00
26051;DHT22;13825;53.496;10.020;2024-02-21T14:24:14;10.30;1.00
26051;DHT22;13825;53.496;10.020;2024-02-21T14:26:06;10.30;1.00
26051;DHT22;13825;53.496;10.020;2024-02-21T14:28:39;10.60;1.00
26051;DHT22;13825;53.496;10.020;2024-02-21T14:31:11;10.50;1.00
26051;DHT22;13825;53.496;10.020;2024-02-21T14:33:43;10.60;1.00
26051;DHT22;13825;53.496;10.020;2024-02-21T14:36:29;10.60;1.00
26051;DHT22;13825;53.496;10.020;2024-02-21T14:39:01;10.70;1.00
26051;DHT22;13825;53.496;10.020;2024-02-21T14:41:32;10.60;1.00
26051;DHT22;13825;53.496;10.020;2024-02-21T14:44:07;10.60;1.00
26051;DHT22;13825;53.496;10.020;2024-02-21T14:46:43;10.40;1.00
26051;DHT22;13825;53.496;10.020;2024-02-21T14:49:35;10.20;1.00
26051;DHT22;13825;53.496;10.020;2024-02-21T14:54:51;10.10;1.00
26051;DHT22;13825;53.496;10.020;2024-02-21T14:57:24;10.00;1.00
26051;DHT22;13825;53.496;10.020;2024-02-21T15:00:00;9.90;1.00
26051;DHT22;13825;53.496;10.020;2024-02-21T15:02:45;9.90;1.00
26051;DHT22;13825;53.496;10.020;2024-02-21T15:05:15;9.80;1.00
26051;DHT22;13825;53.496;10.020;2024-02-21T15:07:42;9.80;1.00
26051;DHT22;13825;53.496;10.020;2024-02-21T15:10:21;9.70;1.00
26051;DHT22;13825;53.496;10.020;2024-02-21T15:12:57;9.90;1.00
26051;DHT22;13825;53.496;10.020;2024-02-21T15:15:32;9.60;1.00
26051;DHT22;13825;53.496;10.020;2024-02-21T15:17:59;9.60;1.00
26051;DHT22;13825;53.496;10.020;2024-02-21T15:20:29;9.70;1.00
26051;DHT22;13825;53.496;10.020;2024-02-21T15:22:59;9.60;1.00
26051;DHT22;13825;53.496;10.020;2024-02-21T15:25:38;9.50;1.00
26051;DHT22;13825;53.496;10.020;2024-02-21T15:28:16;9.60;1.00
26051;DHT22;13825;53.496;10.020;2024-02-21T15:30:43;9.50;1.00
26051;DHT22;13825;53.496;10.020;2024-02-21T15:33:23;9.40;1.00
26051;DHT22;13825;53.496;10.020;2024-02-21T15:35:55;9.40;1.00
26051;DHT22;13825;53.496;10.020;2024-02-21T15:38:25;9.40;1.00
26051;DHT22;13825;53.496;10.020;2024-02-21T15:40:57;9.40;1.00
26051;DHT22;13825;53.496;10.020;2024-02-21T15:43:34;9.30;1.00
26051;DHT22;13825;53.496;10.020;2024-02-21T15:46:10;9.30;1.00
26051;DHT22;13825;53.496;10.020;2024-02-21T15:48:39;9.30;1.00
26051;DHT22;13825;53.496;10.020;2024-02-21T15:51:19;9.20;1.00
26051;DHT22;13825;53.496;10.020;2024-02-21T15:53:53;9.20;1.00
26051;DHT22;13825;53.496;10.020;2024-02-21T15:56:25;9.10;1.00
26051;DHT22;13825;53.496;10.020;2024-02-21T15:58:55;9.10;1.00
26051;DHT22;13825;53.496;10.020;2024-02-21T16:01:23;9.10;1.00
26051;DHT22;13825;53.496;10.020;2024-02-21T16:03:51;9.10;1.00
26051;DHT22;13825;53.496;10.020;2024-02-21T16:06:24;9.00;1.00
26051;DHT22;13825;53.496;10.020;2024-02-21T16:08:52;8.90;1.00
26051;DHT22;13825;53.496;10.020;2024-02-21T16:14:01;8.90;1.00
26051;DHT22;13825;53.496;10.020;2024-02-21T16:16:34;8.80;1.00
26051;DHT22;13825;53.496;10.020;2024-02-21T16:19:09;8.80;1.00
26051;DHT22;13825;53.496;10.020;2024-02-21T16:21:44;8.80;1.00
26051;DHT22;13825;53.496;10.020;2024-02-21T16:24:25;8.70;1.00
26051;DHT22;13825;53.496;10.020;2024-02-21T16:27:00;8.60;1.00
26051;DHT22;13825;53.496;10.020;2024-02-21T17:40:22;8.20;1.00
26051;DHT22;13825;53.496;10.020;2024-02-21T17:43:00;8.20;1.00
26051;DHT22;13825;53.496;10.020;2024-02-21T17:45:42;8.20;1.00
26051;DHT22;13825;53.496;10.020;2024-02-21T17:48:23;8.20;1.00
26051;DHT22;13825;53.496;10.020;2024-02-21T17:50:54;8.20;1.00
26051;DHT22;13825;53.496;10.020;2024-02-21T18:04:24;8.10;1.00
26051;DHT22;13825;53.496;10.020;2024-02-21T18:07:07;8.00;1.00
26051;DHT22;13825;53.496;10.020;2024-02-21T18:09:53;8.00;1.00
26051;DHT22;13825;53.496;10.020;2024-02-21T18:12:36;7.90;1.00
26051;DHT22;13825;53.496;10.020;2024-02-21T18:15:14;7.90;1.00
26051;DHT22;13825;53.496;10.020;2024-02-21T18:17:51;7.90;1.00
26051;DHT22;13825;53.496;10.020;2024-02-21T18:20:42;8.00;1.00
26051;DHT22;13825;53.496;10.020;2024-02-21T18:23:18;8.00;1.00
26051;DHT22;13825;53.496;10.020;2024-02-21T18:26:07;8.00;1.00
26051;DHT22;13825;53.496;10.020;2024-02-21T18:29:05;7.90;1.00
26051;DHT22;13825;53.496;10.020;2024-02-21T18:31:43;7.90;1.00
26051;DHT22;13825;53.496;10.020;2024-02-21T18:34:16;7.90;1.00
26051;DHT22;13825;53.496;10.020;2024-02-21T18:36:58;7.80;1.00
26051;DHT22;13825;53.496;10.020;2024-02-21T18:39:35;7.90;1.00
26051;DHT22;13825;53.496;10.020;2024-02-21T18:42:16;7.80;1.00
26051;DHT22;13825;53.496;10.020;2024-02-21T18:44:48;7.80;1.00
26051;DHT22;13825;53.496;10.020;2024-02-21T18:50:12;7.70;1.00
26051;DHT22;13825;53.496;10.020;2024-02-21T19:11:57;7.90;1.00
26051;DHT22;13825;53.496;10.020;2024-02-21T19:18:00;7.90;1.00
26051;DHT22;13825;53.496;10.020;2024-02-21T19:19:54;7.90;1.00
26051;DHT22;13825;53.496;10.020;2024-02-21T19:22:35;7.90;1.00
26051;DHT22;13825;53.496;10.020;2024-02-21T19:25:06;7.90;1.00
26051;DHT22;13825;53.496;10.020;2024-02-21T19:27:54;7.90;1.00
26051;DHT22;13825;53.496;10.020;2024-02-21T19:30:40;7.90;1.00
26051;DHT22;13825;53.496;10.020;2024-02-21T19:38:34;8.00;1.00
26051;DHT22;13825;53.496;10.020;2024-02-21T19:41:18;8.00;1.00
26051;DHT22;13825;53.496;10.020;2024-02-21T19:43:50;8.00;1.00
26051;DHT22;13825;53.496;10.020;2024-02-21T19:46:41;8.00;1.00
26051;DHT22;13825;53.496;10.020;2024-02-21T19:49:26;8.00;1.00
26051;DHT22;13825;53.496;10.020;2024-02-21T19:52:03;8.10;1.00
26051;DHT22;13825;53.496;10.020;2024-02-21T19:54:41;8.10;1.00
26051;DHT22;13825;53.496;10.020;2024-02-21T19:57:10;8.10;1.00
26051;DHT22;13825;53.496;10.020;2024-02-21T20:02:35;8.10;1.00
26051;DHT22;13825;53.496;10.020;2024-02-21T20:05:02;8.10;1.00
26051;DHT22;13825;53.496;10.020;2024-02-21T20:07:28;8.10;1.00
26051;DHT22;13825;53.496;10.020;2024-02-21T20:09:55;8.10;1.00
26051;DHT22;13825;53.496;10.020;2024-02-21T20:12:22;8.00;1.00
26051;DHT22;13825;53.496;10.020;2024-02-21T20:14:51;8.10;1.00
26051;DHT22;13825;53.496;10.020;2024-02-21T20:17:19;8.10;1.00
26051;DHT22;13825;53.496;10.020;2024-02-21T20:19:47;8.10;1.00
26051;DHT22;13825;53.496;10.020;2024-02-21T20:22:14;8.00;1.00
26051;DHT22;13825;53.496;10.020;2024-02-21T20:24:50;8.00;1.00
26051;DHT22;13825;53.496;10.020;2024-02-21T20:27:17;8.00;1.00
26051;DHT22;13825;53.496;10.020;2024-02-21T20:29:44;8.10;1.00
26051;DHT22;13825;53.496;10.020;2024-02-21T20:32:11;8.10;1.00
26051;DHT22;13825;53.496;10.020;2024-02-21T20:34:39;8.10;1.00
26051;DHT22;13825;53.496;10.020;2024-02-21T20:37:10;8.10;1.00
26051;DHT22;13825;53.496;10.020;2024-02-21T20:39:50;8.00;1.00
26051;DHT22;13825;53.496;10.020;2024-02-21T20:42:19;8.10;1.00
26051;DHT22;13825;53.496;10.020;2024-02-21T20:44:49;8.00;1.00
26051;DHT22;13825;53.496;10.020;2024-02-21T20:47:16;8.00;1.00
26051;DHT22;13825;53.496;10.020;2024-02-21T20:49:45;8.00;1.00
26051;DHT22;13825;53.496;10.020;2024-02-21T20:52:15;7.90;1.00
26051;DHT22;13825;53.496;10.020;2024-02-21T20:54:48;8.00;1.00
26051;DHT22;13825;53.496;10.020;2024-02-21T20:57:18;8.00;1.00
26051;DHT22;13825;53.496;10.020;2024-02-21T20:59:44;8.00;1.00
26051;DHT22;13825;53.496;10.020;2024-02-21T21:02:11;7.90;1.00
26051;DHT22;13825;53.496;10.020;2024-02-21T21:04:38;7.90;1.00
26051;DHT22;13825;53.496;10.020;2024-02-21T21:07:05;7.90;1.00
26051;DHT22;13825;53.496;10.020;2024-02-21T21:09:34;7.90;1.00
26051;DHT22;13825;53.496;10.020;2024-02-21T21:12:02;7.90;1.00
26051;DHT22;13825;53.496;10.020;2024-02-21T21:14:29;7.80;1.00
26051;DHT22;13825;53.496;10.020;2024-02-21T21:16:56;7.80;1.00
26051;DHT22;13825;53.496;10.020;2024-02-21T21:19:24;7.80;1.00
26051;DHT22;13825;53.496;10.020;2024-02-21T21:21:54;7.70;1.00
26051;DHT22;13825;53.496;10.020;2024-02-21T21:24:24;7.70;1.00
26051;DHT22;13825;53.496;10.020;2024-02-21T21:26:52;7.70;1.00
26051;DHT22;13825;53.496;10.020;2024-02-21T21:29:21;7.60;1.00
26051;DHT22;13825;53.496;10.020;2024-02-21T21:31:53;7.70;1.00
26051;DHT22;13825;53.496;10.020;2024-02-21T21:34:26;7.60;10.00
26051;DHT22;13825;53.496;10.020;2024-02-21T21:36:57;7.60;11.80